createdAt,value
2018-08-22T00:00:17.911Z,21.43
2018-08-22T00:00:58.327Z,21.42
2018-08-22T00:01:38.715Z,21.49
2018-08-22T00:02:19.127Z,21.43
2018-08-22T00:02:59.496Z,21.3
2018-08-22T00:03:39.962Z,21.37
2018-08-22T00:04:20.347Z,21.38
2018-08-22T00:05:00.732Z,21.43
2018-08-22T00:05:41.136Z,21.3
2018-08-22T00:06:21.511Z,21.45
2018-08-22T00:07:01.928Z,21.42
2018-08-22T00:07:42.299Z,21.37
2018-08-22T00:08:22.701Z,21.42
2018-08-22T00:09:03.114Z,21.46
2018-08-22T00:09:43.471Z,21.42
2018-08-22T00:10:23.853Z,21.4
2018-08-22T00:11:04.240Z,21.42
2018-08-22T00:11:44.682Z,21.36
2018-08-22T00:12:25.108Z,21.38
2018-08-22T00:13:05.502Z,21.37
2018-08-22T00:13:45.901Z,21.36
2018-08-22T00:14:26.261Z,21.37
2018-08-22T00:15:06.760Z,21.38
2018-08-22T00:15:47.106Z,21.37
2018-08-22T00:16:27.467Z,21.31
2018-08-22T00:17:07.841Z,21.28
2018-08-22T00:17:48.310Z,21.31
2018-08-22T00:18:28.676Z,21.26
2018-08-22T00:19:09.065Z,21.26
2018-08-22T00:19:49.469Z,21.31
2018-08-22T00:20:29.883Z,21.26
2018-08-22T00:21:10.273Z,21.24
2018-08-22T00:21:50.664Z,21.26
2018-08-22T00:22:31.061Z,21.24
2018-08-22T00:23:11.486Z,21.27
2018-08-22T00:23:51.904Z,21.24
2018-08-22T00:24:32.209Z,21.21
2018-08-22T00:25:12.663Z,21.19
2018-08-22T00:25:53.044Z,21.24
2018-08-22T00:26:33.459Z,21.24
2018-08-22T00:27:13.798Z,21.19
2018-08-22T00:27:54.207Z,21.21
2018-08-22T00:28:34.607Z,21.13
2018-08-22T00:29:15.147Z,21.21
2018-08-22T00:29:55.434Z,21.16
2018-08-22T00:30:35.800Z,21.19
2018-08-22T00:31:16.273Z,21.22
2018-08-22T00:31:56.653Z,21.18
2018-08-22T00:32:37.050Z,21.19
2018-08-22T00:33:17.412Z,21.11
2018-08-22T00:33:57.841Z,21.19
2018-08-22T00:34:38.235Z,21.11
2018-08-22T00:35:18.626Z,21.15
2018-08-22T00:35:59.009Z,21.15
2018-08-22T00:36:39.413Z,21.11
2018-08-22T00:37:19.858Z,21.15
2018-08-22T00:38:00.216Z,21.15
2018-08-22T00:38:40.658Z,21.12
2018-08-22T00:39:21.012Z,21.13
2018-08-22T00:40:01.439Z,21.11
2018-08-22T00:40:41.808Z,21.13
2018-08-22T00:41:22.241Z,21.12
2018-08-22T00:42:02.604Z,21.12
2018-08-22T00:42:42.981Z,21.13
2018-08-22T00:43:23.418Z,21.05
2018-08-22T00:44:03.846Z,21.13
2018-08-22T00:44:44.233Z,21.05
2018-08-22T00:45:24.645Z,21.15
2018-08-22T00:46:05.035Z,21.16
2018-08-22T00:46:45.466Z,21.15
2018-08-22T00:47:25.936Z,21.19
2018-08-22T00:48:06.298Z,21.13
2018-08-22T00:48:46.661Z,21.15
2018-08-22T00:49:27.120Z,21.13
2018-08-22T00:50:07.461Z,21.16
2018-08-22T00:50:47.918Z,21.16
2018-08-22T00:51:28.278Z,21.16
2018-08-22T00:52:08.667Z,21.19
2018-08-22T00:52:49.165Z,21.26
2018-08-22T00:53:29.541Z,21.24
2018-08-22T00:54:09.871Z,21.21
2018-08-22T00:54:50.341Z,21.3
2018-08-22T00:55:30.710Z,21.28
2018-08-22T00:56:11.096Z,21.27
2018-08-22T00:56:51.457Z,21.22
2018-08-22T00:57:31.899Z,21.24
2018-08-22T00:58:12.352Z,21.24
2018-08-22T00:58:52.704Z,21.34
2018-08-22T00:59:33.122Z,21.24
2018-08-22T01:00:13.530Z,21.22
2018-08-22T01:00:53.941Z,21.24
2018-08-22T01:01:34.363Z,21.21
2018-08-22T01:02:14.716Z,21.28
2018-08-22T01:02:55.126Z,21.26
2018-08-22T01:03:35.533Z,21.24
2018-08-22T01:04:15.958Z,21.24
2018-08-22T01:04:56.355Z,21.24
2018-08-22T01:05:36.748Z,21.26
2018-08-22T01:06:17.201Z,21.19
2018-08-22T01:06:57.555Z,21.16
2018-08-22T01:07:37.987Z,21.16
2018-08-22T01:08:18.404Z,21.15
2018-08-22T01:08:58.772Z,21.12
2018-08-22T01:09:39.224Z,21.05
2018-08-22T01:10:19.621Z,21.03
2018-08-22T01:11:00.062Z,21.01
2018-08-22T01:11:40.466Z,21.01
2018-08-22T01:12:20.817Z,20.97
2018-08-22T01:13:01.247Z,20.97
2018-08-22T01:13:41.668Z,20.9
2018-08-22T01:14:22.111Z,20.93
2018-08-22T01:15:02.456Z,20.83
2018-08-22T01:15:42.958Z,20.85
2018-08-22T01:16:23.325Z,20.88
2018-08-22T01:17:03.786Z,20.83
2018-08-22T01:17:44.270Z,20.87
2018-08-22T01:18:24.666Z,20.85
2018-08-22T01:19:05.119Z,20.93
2018-08-22T01:19:45.481Z,20.91
2018-08-22T01:20:25.917Z,20.9
2018-08-22T01:21:06.318Z,20.88
2018-08-22T01:21:46.723Z,20.88
2018-08-22T01:22:27.129Z,20.98
2018-08-22T01:23:07.519Z,20.98
2018-08-22T01:23:47.922Z,20.98
2018-08-22T01:24:28.369Z,20.9
2018-08-22T01:25:08.724Z,20.97
2018-08-22T01:25:49.218Z,20.9
2018-08-22T01:26:29.629Z,20.9
2018-08-22T01:27:10.003Z,20.91
2018-08-22T01:27:50.421Z,20.88
2018-08-22T01:28:30.752Z,20.9
2018-08-22T01:29:11.169Z,20.82
2018-08-22T01:29:51.563Z,20.83
2018-08-22T01:30:31.875Z,20.83
2018-08-22T01:31:12.314Z,20.83
2018-08-22T01:31:52.765Z,20.79
2018-08-22T01:32:33.163Z,20.81
2018-08-22T01:33:13.548Z,20.81
2018-08-22T01:33:53.914Z,20.85
2018-08-22T01:34:34.344Z,20.78
2018-08-22T01:35:14.727Z,20.83
2018-08-22T01:35:55.138Z,20.81
2018-08-22T01:36:35.588Z,20.79
2018-08-22T01:37:15.997Z,20.82
2018-08-22T01:37:56.343Z,20.75
2018-08-22T01:38:36.685Z,20.75
2018-08-22T01:39:17.179Z,20.76
2018-08-22T01:39:57.570Z,20.76
2018-08-22T01:40:37.950Z,20.76
2018-08-22T01:41:18.365Z,20.79
2018-08-22T01:41:58.789Z,20.68
2018-08-22T01:42:39.212Z,20.75
2018-08-22T01:43:19.694Z,20.76
2018-08-22T01:44:00.049Z,20.81
2018-08-22T01:44:40.424Z,20.85
2018-08-22T01:45:20.828Z,20.79
2018-08-22T01:46:01.230Z,20.82
2018-08-22T01:46:41.710Z,20.88
2018-08-22T01:47:22.117Z,20.81
2018-08-22T01:48:02.570Z,20.81
2018-08-22T01:48:42.899Z,20.81
2018-08-22T01:50:33.817Z,20.69
2018-08-22T01:51:17.806Z,20.72
2018-08-22T01:51:58.211Z,20.73
2018-08-22T01:52:38.562Z,20.72
2018-08-22T01:53:19.059Z,20.68
2018-08-22T01:53:59.407Z,20.71
2018-08-22T01:54:39.778Z,20.69
2018-08-22T01:55:20.226Z,20.72
2018-08-22T01:56:00.636Z,20.64
2018-08-22T01:56:41.055Z,20.68
2018-08-22T01:57:21.384Z,20.63
2018-08-22T01:58:01.841Z,20.6
2018-08-22T01:58:42.333Z,20.63
2018-08-22T01:59:22.616Z,20.58
2018-08-22T02:00:03.093Z,20.68
2018-08-22T02:00:43.531Z,20.63
2018-08-22T02:01:23.901Z,20.61
2018-08-22T02:02:04.277Z,20.58
2018-08-22T02:02:44.655Z,20.63
2018-08-22T02:03:25.054Z,20.66
2018-08-22T02:04:05.520Z,20.61
2018-08-22T02:04:45.873Z,20.57
2018-08-22T02:05:26.295Z,20.56
2018-08-22T02:06:06.678Z,20.51
2018-08-22T02:06:47.106Z,20.51
2018-08-22T02:07:27.522Z,20.5
2018-08-22T02:08:07.896Z,20.46
2018-08-22T02:08:48.319Z,20.53
2018-08-22T02:09:28.692Z,20.44
2018-08-22T02:10:09.116Z,20.46
2018-08-22T02:10:49.496Z,20.4
2018-08-22T02:11:29.880Z,20.46
2018-08-22T02:12:10.237Z,20.44
2018-08-22T02:12:50.713Z,20.51
2018-08-22T02:13:31.049Z,20.46
2018-08-22T02:14:11.498Z,20.42
2018-08-22T02:14:51.887Z,20.41
2018-08-22T02:15:32.337Z,20.38
2018-08-22T02:16:12.631Z,20.42
2018-08-22T02:16:53.086Z,20.42
2018-08-22T02:17:33.459Z,20.41
2018-08-22T02:18:13.879Z,20.4
2018-08-22T02:18:54.269Z,20.33
2018-08-22T02:19:34.639Z,20.26
2018-08-22T02:20:15.096Z,20.31
2018-08-22T02:20:55.417Z,20.38
2018-08-22T02:21:35.911Z,20.33
2018-08-22T02:22:16.315Z,20.33
2018-08-22T02:22:56.708Z,20.41
2018-08-22T02:23:37.060Z,20.48
2018-08-22T02:24:17.436Z,20.4
2018-08-22T02:24:57.826Z,20.46
2018-08-22T02:25:38.271Z,20.51
2018-08-22T02:26:18.627Z,20.51
2018-08-22T02:26:59.053Z,20.51
2018-08-22T02:27:39.454Z,20.42
2018-08-22T02:28:19.839Z,20.51
2018-08-22T02:29:00.211Z,20.44
2018-08-22T02:29:40.561Z,20.41
2018-08-22T02:30:21.006Z,20.41
2018-08-22T02:31:01.446Z,20.37
2018-08-22T02:31:41.797Z,20.38
2018-08-22T02:32:22.235Z,20.48
2018-08-22T02:33:02.667Z,20.51
2018-08-22T02:33:42.997Z,20.53
2018-08-22T02:34:23.449Z,20.51
2018-08-22T02:35:03.798Z,20.5
2018-08-22T02:35:44.166Z,20.54
2018-08-22T02:36:24.568Z,20.51
2018-08-22T02:37:04.993Z,20.53
2018-08-22T02:37:45.443Z,20.53
2018-08-22T02:38:25.790Z,20.42
2018-08-22T02:39:06.146Z,20.53
2018-08-22T02:39:46.562Z,20.5
2018-08-22T02:40:26.950Z,20.44
2018-08-22T02:41:07.346Z,20.44
2018-08-22T02:41:47.802Z,20.48
2018-08-22T02:42:28.161Z,20.44
2018-08-22T02:43:08.567Z,20.44
2018-08-22T02:43:48.933Z,20.35
2018-08-22T02:44:29.365Z,20.31
2018-08-22T02:45:09.806Z,20.31
2018-08-22T02:45:50.202Z,20.41
2018-08-22T02:46:30.583Z,20.3
2018-08-22T02:47:11.007Z,20.33
2018-08-22T02:47:51.419Z,20.31
2018-08-22T02:48:31.869Z,20.25
2018-08-22T02:49:12.248Z,20.25
2018-08-22T02:49:52.669Z,20.15
2018-08-22T02:50:33.073Z,20.2
2018-08-22T02:51:13.499Z,20.13
2018-08-22T02:51:53.880Z,20.17
2018-08-22T02:52:34.339Z,20.15
2018-08-22T02:53:14.710Z,20.08
2018-08-22T02:53:55.066Z,20.08
2018-08-22T02:54:35.528Z,20.07
2018-08-22T02:55:15.915Z,20.05
2018-08-22T02:55:56.346Z,20.07
2018-08-22T02:56:36.762Z,19.92
2018-08-22T02:57:17.136Z,19.86
2018-08-22T02:57:57.582Z,19.89
2018-08-22T02:58:37.989Z,19.85
2018-08-22T02:59:18.431Z,19.79
2018-08-22T02:59:58.829Z,19.85
2018-08-22T03:00:39.183Z,19.82
2018-08-22T03:01:19.619Z,19.82
2018-08-22T03:02:00.088Z,19.75
2018-08-22T03:02:40.472Z,19.7
2018-08-22T03:03:20.881Z,19.79
2018-08-22T03:04:01.258Z,19.78
2018-08-22T03:04:41.608Z,19.86
2018-08-22T03:05:22.065Z,19.79
2018-08-22T03:06:02.441Z,19.78
2018-08-22T03:06:42.833Z,19.83
2018-08-22T03:07:23.256Z,19.76
2018-08-22T03:08:03.665Z,19.67
2018-08-22T03:08:44.019Z,19.62
2018-08-22T03:09:24.380Z,19.7
2018-08-22T03:10:04.830Z,19.72
2018-08-22T03:10:45.243Z,19.8
2018-08-22T03:11:25.683Z,19.75
2018-08-22T03:12:06.097Z,19.8
2018-08-22T03:12:46.489Z,19.83
2018-08-22T03:13:26.838Z,19.76
2018-08-22T03:14:07.301Z,19.78
2018-08-22T03:14:47.697Z,19.79
2018-08-22T03:15:28.165Z,19.78
2018-08-22T03:16:08.551Z,19.7
2018-08-22T03:16:48.889Z,19.8
2018-08-22T03:17:29.320Z,19.7
2018-08-22T03:18:09.731Z,19.86
2018-08-22T03:18:50.094Z,19.68
2018-08-22T03:19:30.668Z,19.68
2018-08-22T03:20:11.041Z,19.72
2018-08-22T03:20:51.465Z,19.72
2018-08-22T03:21:31.907Z,19.75
2018-08-22T03:22:12.291Z,19.71
2018-08-22T03:22:52.680Z,19.7
2018-08-22T03:23:33.081Z,19.82
2018-08-22T03:24:13.487Z,19.78
2018-08-22T03:24:53.912Z,19.83
2018-08-22T03:25:34.335Z,19.8
2018-08-22T03:26:14.750Z,19.75
2018-08-22T03:26:55.078Z,19.83
2018-08-22T03:27:35.458Z,19.8
2018-08-22T03:28:15.905Z,19.83
2018-08-22T03:28:56.387Z,19.75
2018-08-22T03:29:36.769Z,19.78
2018-08-22T03:30:17.181Z,19.8
2018-08-22T03:30:57.576Z,19.78
2018-08-22T03:31:38.003Z,19.82
2018-08-22T03:32:18.373Z,19.82
2018-08-22T03:32:58.797Z,19.78
2018-08-22T03:33:39.133Z,19.79
2018-08-22T03:34:19.574Z,19.82
2018-08-22T03:34:59.988Z,19.68
2018-08-22T03:35:40.371Z,19.79
2018-08-22T03:36:20.790Z,19.8
2018-08-22T03:37:01.257Z,19.85
2018-08-22T03:37:41.612Z,19.8
2018-08-22T03:38:22.024Z,19.78
2018-08-22T03:39:02.458Z,19.79
2018-08-22T03:39:42.881Z,19.8
2018-08-22T03:40:23.276Z,19.8
2018-08-22T03:41:03.726Z,19.75
2018-08-22T03:41:44.136Z,19.79
2018-08-22T03:42:24.587Z,19.79
2018-08-22T03:43:04.996Z,19.72
2018-08-22T03:43:45.424Z,19.85
2018-08-22T03:44:25.814Z,19.8
2018-08-22T03:45:06.206Z,19.75
2018-08-22T03:45:46.581Z,19.7
2018-08-22T03:46:27.082Z,19.8
2018-08-22T03:47:07.529Z,19.75
2018-08-22T03:47:47.893Z,19.75
2018-08-22T03:48:28.373Z,19.67
2018-08-22T03:49:08.759Z,19.76
2018-08-22T03:49:49.254Z,19.72
2018-08-22T03:50:29.720Z,19.7
2018-08-22T03:51:10.134Z,19.75
2018-08-22T03:51:50.474Z,19.7
2018-08-22T03:52:30.939Z,19.75
2018-08-22T03:53:12.080Z,19.75
2018-08-22T03:53:51.967Z,19.7
2018-08-22T03:54:32.402Z,19.68
2018-08-22T03:55:12.836Z,19.68
2018-08-22T03:55:53.258Z,19.65
2018-08-22T03:56:33.690Z,19.57
2018-08-22T03:57:14.032Z,19.64
2018-08-22T03:57:54.498Z,19.61
2018-08-22T03:58:34.934Z,19.58
2018-08-22T03:59:15.287Z,19.62
2018-08-22T03:59:55.716Z,19.61
2018-08-22T04:00:36.120Z,19.58
2018-08-22T04:01:16.537Z,19.57
2018-08-22T04:01:56.998Z,19.57
2018-08-22T04:02:37.432Z,19.57
2018-08-22T04:03:17.892Z,19.57
2018-08-22T04:03:58.448Z,19.58
2018-08-22T04:04:38.895Z,19.6
2018-08-22T04:05:19.206Z,19.61
2018-08-22T04:05:59.601Z,19.53
2018-08-22T04:06:39.978Z,19.5
2018-08-22T04:07:20.385Z,19.5
2018-08-22T04:08:00.831Z,19.47
2018-08-22T04:08:41.192Z,19.49
2018-08-22T04:09:21.713Z,19.5
2018-08-22T04:10:02.191Z,19.38
2018-08-22T04:10:42.567Z,19.46
2018-08-22T04:11:22.991Z,19.39
2018-08-22T04:12:03.377Z,19.39
2018-08-22T04:12:43.799Z,19.47
2018-08-22T04:13:24.180Z,19.4
2018-08-22T04:14:04.693Z,19.4
2018-08-22T04:14:45.048Z,19.34
2018-08-22T04:16:34.737Z,19.39
2018-08-22T04:17:16.218Z,19.45
2018-08-22T04:17:56.657Z,19.34
2018-08-22T04:18:37.035Z,19.39
2018-08-22T04:19:17.479Z,19.47
2018-08-22T04:19:57.935Z,19.43
2018-08-22T04:20:38.325Z,19.38
2018-08-22T04:21:18.709Z,19.32
2018-08-22T04:21:59.094Z,19.35
2018-08-22T04:22:39.540Z,19.4
2018-08-22T04:23:19.922Z,19.28
2018-08-22T04:24:00.449Z,19.34
2018-08-22T04:24:40.883Z,19.24
2018-08-22T04:25:21.251Z,19.27
2018-08-22T04:26:01.667Z,19.27
2018-08-22T04:26:42.043Z,19.38
2018-08-22T04:27:22.472Z,19.31
2018-08-22T05:07:20.337Z,19.75
2018-08-22T05:08:21.364Z,19.86
2018-08-22T05:09:07.011Z,19.9
2018-08-22T05:09:48.163Z,19.89
2018-08-22T05:10:29.727Z,20.04
2018-08-22T05:11:10.215Z,20.04
2018-08-22T05:11:50.609Z,20.08
2018-08-22T05:12:36.790Z,20.17
2018-08-22T05:13:18.599Z,20.3
2018-08-22T05:14:00.009Z,20.33
2018-08-22T05:14:41.346Z,20.27
2018-08-22T05:15:21.696Z,20.46
2018-08-22T05:16:02.245Z,20.48
2018-08-22T05:16:44.414Z,20.51
2018-08-22T05:17:26.135Z,20.66
2018-08-22T05:18:09.094Z,20.78
2018-08-22T05:19:51.145Z,21.05
2018-08-22T05:20:55.221Z,21.13
2018-08-22T05:22:36.713Z,21.43
2018-08-22T05:24:17.895Z,21.63
2018-08-22T05:24:58.051Z,21.75
2018-08-22T05:25:38.505Z,21.86
2018-08-22T05:26:18.886Z,21.96
2018-08-22T05:27:01.727Z,22.04
2018-08-22T05:27:42.473Z,21.99
2018-08-22T05:28:22.908Z,21.96
2018-08-22T05:29:03.343Z,21.96
2018-08-22T05:29:43.759Z,21.96
2018-08-22T05:30:24.269Z,22.02
2018-08-22T05:31:04.628Z,21.94
2018-08-22T05:31:45.092Z,22.08
2018-08-22T05:32:25.535Z,22.08
2018-08-22T05:33:05.953Z,22.36
2018-08-22T05:33:46.425Z,22.44
2018-08-22T05:34:26.787Z,22.42
2018-08-22T05:35:07.284Z,22.46
2018-08-22T05:35:47.599Z,22.63
2018-08-22T05:36:28.013Z,22.72
2018-08-22T05:37:10.769Z,22.84
2018-08-22T05:37:51.178Z,23
2018-08-22T05:38:31.572Z,23.09
2018-08-22T05:40:26.457Z,23.56
2018-08-22T05:41:08.154Z,23.6
2018-08-22T05:41:48.664Z,23.78
2018-08-22T05:42:29.015Z,23.84
2018-08-22T05:43:09.490Z,23.96
2018-08-22T05:43:50.195Z,24.14
2018-08-22T05:44:30.609Z,24.19
2018-08-22T05:45:11.045Z,24.42
2018-08-22T05:45:51.745Z,24.44
2018-08-22T05:46:33.107Z,24.52
2018-08-22T05:47:13.618Z,24.6
2018-08-22T05:47:54.151Z,24.68
2018-08-22T05:48:34.492Z,24.75
2018-08-22T05:49:15.028Z,24.84
2018-08-22T05:49:55.276Z,24.92
2018-08-22T05:50:35.711Z,25.01
2018-08-22T05:51:16.085Z,25.14
2018-08-22T05:51:56.578Z,25.27
2018-08-22T05:52:37.028Z,25.29
2018-08-22T05:53:18.363Z,25.42
2018-08-22T05:53:58.300Z,25.48
2018-08-22T05:54:39.016Z,25.54
2018-08-22T05:55:21.044Z,25.71
2018-08-22T05:56:00.752Z,25.66
2018-08-22T05:56:41.371Z,25.71
2018-08-22T05:57:21.600Z,25.85
2018-08-22T05:58:02.058Z,25.97
2018-08-22T05:58:42.558Z,26.11
2018-08-22T05:59:23.026Z,26.11
2018-08-22T06:00:03.466Z,26.17
2018-08-22T06:00:43.915Z,26.2
2018-08-22T06:01:24.330Z,26.31
2018-08-22T06:02:04.792Z,26.24
2018-08-22T06:02:45.746Z,26.39
2018-08-22T06:03:26.109Z,26.49
2018-08-22T06:04:06.605Z,26.53
2018-08-22T06:04:47.065Z,26.61
2018-08-22T06:05:27.671Z,26.69
2018-08-22T06:06:08.432Z,26.66
2018-08-22T06:06:49.952Z,26.79
2018-08-22T06:07:30.538Z,26.9
2018-08-22T06:08:10.099Z,26.98
2018-08-22T06:08:50.519Z,27.15
2018-08-22T06:09:31.113Z,27.09
2018-08-22T06:10:11.631Z,27.08
2018-08-22T06:10:52.067Z,27.11
2018-08-22T06:11:32.568Z,27.08
2018-08-22T06:12:13.805Z,27.2
2018-08-22T06:12:53.866Z,27.33
2018-08-22T06:13:34.544Z,27.39
2018-08-22T06:14:15.479Z,27.49
2018-08-22T06:14:57.378Z,27.65
2018-08-22T06:15:38.262Z,27.72
2018-08-22T06:16:21.311Z,27.9
2018-08-22T06:17:02.112Z,27.88
2018-08-22T06:17:43.588Z,27.99
2018-08-22T06:18:25.806Z,27.99
2018-08-22T06:19:05.791Z,28.21
2018-08-22T06:19:46.386Z,28.25
2018-08-22T06:20:27.318Z,28.3
2018-08-22T06:21:07.936Z,28.35
2018-08-22T06:21:52.314Z,28.48
2018-08-22T06:22:33.375Z,28.62
2018-08-22T06:23:14.396Z,28.7
2018-08-22T06:23:54.826Z,28.77
2018-08-22T06:24:35.469Z,28.94
2018-08-22T06:25:15.934Z,29.05
2018-08-22T06:25:56.575Z,29.23
2018-08-22T06:26:37.491Z,29.36
2018-08-22T06:27:18.080Z,29.37
2018-08-22T06:27:58.862Z,29.48
2018-08-22T06:28:39.383Z,29.55
2018-08-22T06:29:19.812Z,29.63
2018-08-22T06:30:00.202Z,29.7
2018-08-22T06:30:40.623Z,29.69
2018-08-22T06:31:22.032Z,29.71
2018-08-22T06:32:01.658Z,29.76
2018-08-22T06:32:43.377Z,29.79
2018-08-22T06:33:23.827Z,29.79
2018-08-22T06:34:03.901Z,29.79
2018-08-22T06:34:44.823Z,29.84
2018-08-22T06:35:25.607Z,29.89
2018-08-22T06:36:08.342Z,29.95
2018-08-22T06:36:49.001Z,30.06
2018-08-22T06:37:29.247Z,30.25
2018-08-22T06:38:09.713Z,30.29
2018-08-22T06:38:50.826Z,30.4
2018-08-22T06:39:30.924Z,30.51
2018-08-22T06:40:11.563Z,30.61
2018-08-22T06:40:52.044Z,30.64
2018-08-22T06:41:32.463Z,30.63
2018-08-22T06:42:12.935Z,30.72
2018-08-22T06:42:53.616Z,30.7
2018-08-22T06:43:33.839Z,30.82
2018-08-22T06:44:14.357Z,30.85
2018-08-22T06:44:54.811Z,30.98
2018-08-22T06:47:13.072Z,31.04
2018-08-22T06:48:03.677Z,30.98
2018-08-22T06:48:54.242Z,31.01
2018-08-22T06:49:34.696Z,30.85
2018-08-22T06:50:15.094Z,30.81
2018-08-22T06:50:55.717Z,30.73
2018-08-22T06:51:36.257Z,30.75
2018-08-22T06:52:16.643Z,30.78
2018-08-22T06:52:56.976Z,30.9
2018-08-22T06:53:37.489Z,30.86
2018-08-22T06:54:17.896Z,30.76
2018-08-22T06:54:58.392Z,30.86
2018-08-22T06:55:38.803Z,30.83
2018-08-22T06:56:19.164Z,30.85
2018-08-22T06:56:59.586Z,30.81
2018-08-22T06:57:40.036Z,30.91
2018-08-22T06:58:20.417Z,30.82
2018-08-22T06:59:00.863Z,30.78
2018-08-22T06:59:41.220Z,30.88
2018-08-22T07:00:21.639Z,30.82
2018-08-22T07:01:02.164Z,30.82
2018-08-22T07:01:42.560Z,30.81
2018-08-22T07:02:23.025Z,30.79
2018-08-22T07:03:03.431Z,30.79
2018-08-22T07:03:43.772Z,30.9
2018-08-22T07:04:24.188Z,30.81
2018-08-22T07:05:06.703Z,30.82
2018-08-22T07:05:46.505Z,30.81
2018-08-22T07:06:27.091Z,30.73
2018-08-22T07:07:07.323Z,30.73
2018-08-22T07:07:48.003Z,30.82
2018-08-22T07:08:28.429Z,30.83
2018-08-22T07:09:08.788Z,30.88
2018-08-22T07:09:49.200Z,30.86
2018-08-22T07:10:29.699Z,30.91
2018-08-22T07:11:09.991Z,31.01
2018-08-22T07:11:50.539Z,31.13
2018-08-22T07:12:30.942Z,31.12
2018-08-22T07:13:11.466Z,30.94
2018-08-22T07:13:51.964Z,31.01
2018-08-22T07:14:32.534Z,30.85
2018-08-22T07:15:12.873Z,30.86
2018-08-22T07:15:53.865Z,30.86
2018-08-22T07:16:34.041Z,30.91
2018-08-22T07:17:34.599Z,31.1
2018-08-22T07:21:41.587Z,31.34
2018-08-22T07:22:22.058Z,31.54
2018-08-22T07:23:02.560Z,31.53
2018-08-22T07:23:43.134Z,31.57
2018-08-22T07:24:23.940Z,31.5
2018-08-22T07:25:04.433Z,31.4
2018-08-22T07:27:06.795Z,31.46
2018-08-22T07:28:01.571Z,31.6
2018-08-22T07:28:54.453Z,31.52
2018-08-22T07:31:00.145Z,31.47
2018-08-22T07:31:41.263Z,31.41
2018-08-22T07:32:21.755Z,31.35
2018-08-22T07:33:02.557Z,31.18
2018-08-22T07:33:44.104Z,31.23
2018-08-22T07:34:23.640Z,31.18
2018-08-22T07:35:05.153Z,31.18
2018-08-22T07:35:45.664Z,31.15
2018-08-22T07:36:25.665Z,31.1
2018-08-22T07:37:06.396Z,31.27
2018-08-22T07:37:46.816Z,31.27
2018-08-22T07:38:27.287Z,31.32
2018-08-22T07:39:08.379Z,31.37
2018-08-22T07:39:48.858Z,31.46
2018-08-22T07:40:29.508Z,31.54
2018-08-22T07:41:10.286Z,31.6
2018-08-22T07:41:50.392Z,31.67
2018-08-22T07:42:31.701Z,31.71
2018-08-22T07:43:12.122Z,31.85
2018-08-22T07:43:52.177Z,31.92
2018-08-22T07:44:32.674Z,31.91
2018-08-22T07:45:13.223Z,32.02
2018-08-22T07:45:53.817Z,32.03
2018-08-22T07:46:34.308Z,32.13
2018-08-22T07:47:16.041Z,32.1
2018-08-22T07:47:55.354Z,32.29
2018-08-22T07:48:35.894Z,32.4
2018-08-22T07:49:16.492Z,32.39
2018-08-22T07:49:57.203Z,32.41
2018-08-22T07:50:37.947Z,32.34
2018-08-22T07:51:18.792Z,32.34
2018-08-22T07:51:59.586Z,32.46
2018-08-22T07:52:40.649Z,32.63
2018-08-22T07:53:22.853Z,32.66
2018-08-22T07:54:04.649Z,32.77
2018-08-22T07:54:46.147Z,32.85
2018-08-22T07:55:26.891Z,33
2018-08-22T07:56:07.656Z,33.11
2018-08-22T07:56:48.151Z,33.17
2018-08-22T07:57:27.859Z,33.21
2018-08-22T07:58:08.327Z,33.34
2018-08-22T07:58:48.828Z,33.44
2018-08-22T07:59:29.378Z,33.55
2018-08-22T08:00:09.950Z,33.63
2018-08-22T08:00:50.458Z,33.72
2018-08-22T08:01:30.949Z,33.9
2018-08-22T08:02:13.189Z,34.06
2018-08-22T08:02:55.674Z,34.09
2018-08-22T08:03:36.181Z,34.03
2018-08-22T08:04:18.213Z,34.08
2018-08-22T08:04:58.645Z,34.12
2018-08-22T08:05:38.971Z,34.33
2018-08-22T08:06:20.004Z,34.36
2018-08-22T08:07:00.258Z,34.34
2018-08-22T08:07:41.846Z,34.36
2018-08-22T08:08:22.659Z,34.33
2018-08-22T08:09:03.648Z,34.31
2018-08-22T08:09:43.423Z,34.49
2018-08-22T08:10:24.649Z,34.45
2018-08-22T08:11:04.867Z,34.46
2018-08-22T08:11:45.834Z,34.49
2018-08-22T08:12:26.831Z,34.58
2018-08-22T08:13:07.335Z,34.67
2018-08-22T08:13:47.985Z,34.73
2018-08-22T08:14:28.745Z,34.8
2018-08-22T08:15:10.109Z,34.83
2018-08-22T08:15:51.658Z,34.88
2018-08-22T08:16:31.649Z,34.94
2018-08-22T08:17:12.770Z,35.03
2018-08-22T08:17:53.408Z,35.05
2018-08-22T08:18:34.796Z,35.06
2018-08-22T08:19:15.573Z,35.09
2018-08-22T08:19:56.019Z,35.12
2018-08-22T08:20:36.955Z,35.13
2018-08-22T08:21:17.236Z,35.2
2018-08-22T08:21:58.673Z,35.09
2018-08-22T08:22:38.818Z,35.09
2018-08-22T08:23:19.225Z,35.15
2018-08-22T08:23:59.716Z,35.1
2018-08-22T08:24:40.240Z,35.06
2018-08-22T08:25:20.828Z,35.13
2018-08-22T08:26:01.362Z,35.07
2018-08-22T08:26:41.945Z,34.94
2018-08-22T08:27:22.449Z,34.95
2018-08-22T08:28:02.930Z,35
2018-08-22T08:28:43.466Z,34.98
2018-08-22T08:29:23.935Z,35.02
2018-08-22T08:30:04.538Z,35
2018-08-22T08:30:45.208Z,34.95
2018-08-22T08:31:27.324Z,34.9
2018-08-22T08:32:08.041Z,34.69
2018-08-22T08:32:49.158Z,34.58
2018-08-22T08:33:29.434Z,34.63
2018-08-22T08:34:09.964Z,34.69
2018-08-22T08:34:51.653Z,34.76
2018-08-22T08:35:31.457Z,34.83
2018-08-22T08:36:14.093Z,35
2018-08-22T08:36:54.774Z,34.88
2018-08-22T08:37:35.434Z,34.93
2018-08-22T08:38:15.220Z,34.99
2018-08-22T08:38:56.013Z,35.07
2018-08-22T08:39:37.019Z,35.07
2018-08-22T08:40:19.066Z,34.99
2018-08-22T08:41:03.176Z,35.07
2018-08-22T08:41:43.785Z,35.05
2018-08-22T08:42:23.862Z,35.06
2018-08-22T08:43:04.732Z,35.12
2018-08-22T08:43:45.273Z,35.1
2018-08-22T08:44:26.142Z,34.95
2018-08-22T08:45:07.173Z,34.93
2018-08-22T08:45:50.704Z,35.06
2018-08-22T08:46:31.192Z,35.03
2018-08-22T08:47:12.258Z,35.13
2018-08-22T08:47:52.057Z,35.24
2018-08-22T08:48:34.450Z,35.31
2018-08-22T08:49:15.246Z,35.27
2018-08-22T08:49:55.881Z,35.36
2018-08-22T08:50:36.721Z,35.56
2018-08-22T08:51:17.822Z,35.69
2018-08-22T08:52:04.309Z,35.69
2018-08-22T08:52:44.094Z,35.84
2018-08-22T08:53:25.154Z,35.85
2018-08-22T08:54:06.225Z,35.85
2018-08-22T08:54:47.728Z,35.91
2018-08-22T08:55:28.712Z,35.89
2018-08-22T08:56:09.306Z,35.98
2018-08-22T08:56:50.475Z,36.18
2018-08-22T08:57:32.739Z,36.03
2018-08-22T08:58:15.385Z,36.19
2018-08-22T08:58:56.926Z,36.15
2018-08-22T08:59:39.221Z,36.21
2018-08-22T09:00:21.204Z,36.19
2018-08-22T09:01:02.718Z,36.37
2018-08-22T09:01:42.693Z,36.46
2018-08-22T09:02:24.273Z,36.41
2018-08-22T09:03:04.201Z,36.49
2018-08-22T09:03:45.220Z,36.48
2018-08-22T09:04:26.913Z,36.41
2018-08-22T09:05:08.203Z,36.6
2018-08-22T09:05:48.483Z,36.53
2018-08-22T09:06:32.283Z,36.68
2018-08-22T09:07:11.725Z,36.59
2018-08-22T09:07:53.714Z,36.6
2018-08-22T09:08:34.724Z,36.65
2018-08-22T09:09:15.325Z,36.67
2018-08-22T09:09:56.447Z,36.75
2018-08-22T09:10:37.510Z,36.82
2018-08-22T09:11:18.754Z,36.94
2018-08-22T09:11:59.939Z,36.91
2018-08-22T09:12:40.863Z,37.04
2018-08-22T09:13:20.961Z,37.2
2018-08-22T09:14:03.529Z,37.24
2018-08-22T09:14:45.224Z,37.24
2018-08-22T09:15:26.983Z,37.25
2018-08-22T09:16:07.970Z,37.38
2018-08-22T09:16:50.111Z,37.5
2018-08-22T09:17:30.681Z,37.59
2018-08-22T09:18:11.643Z,37.49
2018-08-22T09:18:52.368Z,37.45
2018-08-22T09:19:33.326Z,37.59
2018-08-22T09:20:50.745Z,37.58
2018-08-22T09:21:32.263Z,37.68
2018-08-22T09:22:12.788Z,37.85
2018-08-22T09:22:53.698Z,37.84
2018-08-22T09:23:33.756Z,37.96
2018-08-22T09:24:15.218Z,38.07
2018-08-22T09:24:56.303Z,38.1
2018-08-22T09:25:38.704Z,38.14
2018-08-22T09:26:18.692Z,38.04
2018-08-22T09:26:59.223Z,38.03
2018-08-22T09:27:39.789Z,38
2018-08-22T09:28:21.241Z,38.04
2018-08-22T09:29:01.953Z,38.09
2018-08-22T09:29:43.471Z,38.18
2018-08-22T09:30:24.745Z,38.28
2018-08-22T09:32:48.825Z,38.21
2018-08-22T09:34:06.406Z,38.3
2018-08-22T09:34:45.370Z,38.3
2018-08-22T09:35:26.678Z,38.21
2018-08-22T09:36:06.657Z,38.09
2018-08-22T09:36:47.911Z,38.19
2018-08-22T09:37:28.375Z,38.3
2018-08-22T09:38:10.552Z,38.26
2018-08-22T09:38:52.930Z,38.31
2018-08-22T09:39:34.492Z,38.34
2018-08-22T09:40:15.398Z,38.33
2018-08-22T09:40:58.082Z,38.31
2018-08-22T09:41:40.103Z,38.36
2018-08-22T09:42:19.863Z,38.4
2018-08-22T09:43:01.449Z,38.43
2018-08-22T09:43:41.919Z,38.65
2018-08-22T09:44:22.428Z,38.65